Detall de PIREP

Printer-friendly versionPDF version

[2012/11/20 16:02:00]
Flight IATA:CT3212
Pilot Number:012
Company ICAO:CAT
Aircraft Type:B752/E
PAX:121
Aircraft Registration:PAX
Departing Airport: LEPA
Destination Airport: LHBP
Alternate Airport:LOWW
Online: VATSIM
Route:MORSS/M080F360 UM603 ALG/M080F370 UL5 VALMA UL865 ANC UM986 KOPRY UY573 VEBOS
Flight Level:F370
No Slew and time accel
No pause
Crash detect
Detect pilot in Cockpit between each 30 and 45 minutes
16:02 Zero fuel Weight: 158592 Lbs, Fuel Weight: 27023 Lbs
16:02 VATSIM:LEPA 201530Z 24010KT 9999 FEW025 18/13 Q1017 NOSIG
16:02 VATSIM:LHBP 201530Z 07004KT 040V100 2400 BR NSC 05/05 Q1023 NOSIG
16:02 VOICE CATALONIAN
16:03 Parking Brakes off
16:07 Take-off
16:07 Take off Weight: 184908 Lbs
16:07 Wind: 242º @ 010 Knots Heading: 238º
16:07 POS N39º 33´ 24´´ E002º 43´ 52´´
16:07 Gear Up: 178 Knots
16:07 Flaps:2 at 178 Knots
16:08 Flaps:1 at 203 Knots
16:08 Flaps:0 at 208 Knots
16:22 Wind:322º@040 Knots Heading: 054º Ground Speed: 462 Knots Altitude 36108 ft
16:37 Wind:335º@040 Knots Heading: 069º Ground Speed: 464 Knots Altitude 36082 ft
16:46 TOC
16:46 Fuel Weight: 19603 Lb
16:52 Wind:339º@024 Knots Heading: 064º Ground Speed: 458 Knots Altitude 37050 ft
17:07 Wind:347º@013 Knots Heading: 064º Ground Speed: 457 Knots Altitude 36965 ft
17:22 Wind:004º@009 Knots Heading: 046º Ground Speed: 452 Knots Altitude 37053 ft
17:37 Wind:112º@004 Knots Heading: 038º Ground Speed: 455 Knots Altitude 37099 ft
17:52 Wind:195º@010 Knots Heading: 050º Ground Speed: 464 Knots Altitude 37244 ft
18:02 TOD
18:02 Fuel Weight: 10726 Lb
18:07 Wind:204º@004 Knots Heading: 047º Ground Speed: 415 Knots Altitude 23782 ft
18:22 Wind:083º@002 Knots Heading: 312º Ground Speed: 226 Knots Altitude 2851 ft
18:22 Flaps:1 at 220 Knots
18:22 Flaps:2 at 188 Knots
18:23 Flaps:3 at 159 Knots
18:24 Gear Down: 162 Knots
18:24 Flaps:4 at 158 Knots
18:24 Flaps:5 at 158 Knots
18:24 Flaps:6 at 157 Knots
18:26 TouchDown:Rate -343 ft/min Speed: 124 Knots
18:27 VATSIM:LHBP 201800Z 00000KT 1000 R31L/0500VP1500U R31R/0175V0300N BCFG BR SCT001 01/01 Q1023 NOSIG
18:27 Land
18:27 Wind:022º@001 Knots
18:27 Heading: 311º
18:27 Flight Duration: 02:20
18:27 Landing Weight: 167675 Lbs
18:27 POS N47º 26´ 02´´ E019º 16´ 37´´
18:30 Parking brakes on
18:30 Block to Block Duration: 02:27
18:30 Final Fuel: 8765 Lbls
18:30 Spent Fuel: 18258 Lbls
18:30 Flight Length: 990 NM
18:30 TOD Land Length: 125 NM

Exportar CSV

Powered by Drupal - Modified by Danger4k